Time;durP1;ratioP1;P1;durP2;ratioP2;P2;SDS_P1;SDS_P2;PMS_P1;PMS_P2;Temp;Humidity;BMP_temperature;BMP_pressure;BME280_temperature;BME280_humidity;BME280_pressure;Samples;Min_cycle;Max_cycle;Signal;HPM_P1;HPM_P2
2022/01/06 00:00:59;;;;;;;8.82;2.35;;;6.10;82.20;;;;;;6211727;23;20157;-88
2022/01/06 00:03:26;;;;;;;4.35;1.75;;;6.20;82.20;;;;;;6197342;23;20172;-89
2022/01/06 00:05:52;;;;;;;10.15;2.55;;;6.20;82.20;;;;;;6193615;23;20254;-88
2022/01/06 00:08:18;;;;;;;9.93;2.33;;;6.10;82.40;;;;;;6209797;23;20436;-89
2022/01/06 00:10:47;;;;;;;21.17;2.53;;;6.00;82.40;;;;;;6200041;23;20377;-88
2022/01/06 00:13:15;;;;;;;13.20;3.33;;;5.90;82.40;;;;;;6196841;23;20385;-89
2022/01/06 00:16:02;;;;;;;22.50;3.20;;;5.90;82.60;;;;;;6190858;23;20180;-89
2022/01/06 00:23:58;;;;;;;8.25;2.05;;;5.80;82.90;;;;;;6223573;23;20140;-89
2022/01/06 00:26:23;;;;;;;8.87;1.70;;;5.90;83.10;;;;;;6191297;23;20589;-89
2022/01/06 00:28:49;;;;;;;13.10;2.50;;;5.80;83.10;;;;;;6189943;23;20164;-88
2022/01/06 00:31:14;;;;;;;12.40;2.30;;;5.80;83.20;;;;;;6189062;23;20591;-88
2022/01/06 00:33:40;;;;;;;11.07;2.60;;;5.80;83.30;;;;;;6188549;23;20184;-89
2022/01/06 00:36:06;;;;;;;6.50;2.00;;;5.70;83.50;;;;;;6215290;23;20177;-90
2022/01/06 00:38:31;;;;;;;8.80;2.20;;;5.80;83.70;;;;;;6188828;23;20157;-88
2022/01/06 00:40:58;;;;;;;4.43;2.17;;;5.70;83.80;;;;;;6189203;23;20540;-89
2022/01/06 00:43:24;;;;;;;7.18;2.50;;;5.70;83.90;;;;;;6188550;23;20196;-88
2022/01/06 00:45:50;;;;;;;15.63;2.63;;;5.70;84.20;;;;;;6215086;23;20630;-88
2022/01/06 00:48:15;;;;;;;10.73;2.30;;;5.70;84.40;;;;;;6189100;23;20154;-88
2022/01/06 00:50:43;;;;;;;15.43;3.00;;;5.60;84.30;;;;;;6189028;23;20184;-88
2022/01/06 00:53:09;;;;;;;17.75;2.72;;;5.50;85.00;;;;;;6188357;23;20153;-88
2022/01/06 00:55:37;;;;;;;10.25;1.98;;;5.40;85.40;;;;;;6188460;23;20643;-87
2022/01/06 00:58:04;;;;;;;7.32;2.65;;;5.20;85.40;;;;;;6189406;23;20157;-89
2022/01/06 01:00:38;;;;;;;12.73;3.10;;;5.20;85.30;;;;;;6189103;23;20162;-88
2022/01/06 01:03:14;;;;;;;7.75;2.50;;;5.20;85.60;;;;;;6215321;23;20133;-88
2022/01/06 01:05:42;;;;;;;5.53;2.22;;;5.40;86.00;;;;;;6188738;23;20612;-88
2022/01/06 01:08:08;;;;;;;8.10;2.88;;;5.50;86.20;;;;;;6188440;23;20191;-88
2022/01/06 01:10:34;;;;;;;7.30;1.98;;;5.50;86.30;;;;;;6215444;23;20435;-88
2022/01/06 01:13:00;;;;;;;15.20;2.60;;;5.60;86.40;;;;;;6188636;23;20240;-89
2022/01/06 01:15:27;;;;;;;8.67;2.30;;;5.70;86.50;;;;;;6188372;23;20413;-88
2022/01/06 01:17:54;;;;;;;19.95;3.28;;;5.70;86.50;;;;;;6188901;23;20423;-88
2022/01/06 01:20:21;;;;;;;18.33;3.00;;;5.60;86.50;;;;;;6188589;23;20157;-88
2022/01/06 01:22:47;;;;;;;13.82;4.78;;;5.70;86.70;;;;;;6188244;23;20179;-89
2022/01/06 01:25:14;;;;;;;13.02;3.63;;;5.70;86.80;;;;;;6215232;23;20169;-88
2022/01/06 01:27:43;;;;;;;10.43;4.10;;;5.80;86.90;;;;;;6188924;23;20627;-88
2022/01/06 01:30:13;;;;;;;20.90;3.20;;;5.70;86.90;;;;;;6215256;23;20627;-89
2022/01/06 01:32:45;;;;;;;17.20;3.35;;;5.70;87.10;;;;;;6188059;23;20141;-89
2022/01/06 01:35:11;;;;;;;12.73;3.58;;;5.70;87.10;;;;;;6214722;23;20169;-88
2022/01/06 01:37:38;;;;;;;7.35;2.58;;;5.80;87.10;;;;;;6188641;23;20667;-88
2022/01/06 01:40:05;;;;;;;16.58;3.42;;;5.90;87.10;;;;;;6188925;23;20161;-89
2022/01/06 01:42:32;;;;;;;11.52;3.22;;;5.80;87.00;;;;;;6188569;23;20218;-89
2022/01/06 01:44:58;;;;;;;8.52;2.90;;;5.70;86.90;;;;;;6189692;23;20157;-88
2022/01/06 01:47:39;;;;;;;10.75;3.58;;;5.70;86.90;;;;;;6191946;23;20519;-89
2022/01/06 01:50:13;;;;;;;21.65;3.78;;;5.70;86.90;;;;;;6197371;23;20155;-89
2022/01/06 01:52:47;;;;;;;25.90;4.03;;;5.90;86.80;;;;;;6200143;23;20203;-89
2022/01/06 01:55:28;;;;;;;15.00;3.10;;;5.90;86.70;;;;;;6202297;23;20173;-89
2022/01/06 01:57:55;;;;;;;18.65;3.67;;;5.90;86.60;;;;;;6190710;23;20160;-88
2022/01/06 02:00:27;;;;;;;17.55;3.50;;;6.00;86.50;;;;;;6215600;23;20156;-89
2022/01/06 02:02:54;;;;;;;14.73;3.72;;;6.00;86.40;;;;;;6198421;23;20214;-88
2022/01/06 02:05:25;;;;;;;21.27;4.07;;;6.00;86.30;;;;;;6202713;23;20184;-89
2022/01/06 02:07:52;;;;;;;16.33;3.00;;;5.90;86.20;;;;;;6240676;23;20197;-89
2022/01/06 02:10:19;;;;;;;23.05;3.20;;;5.80;86.10;;;;;;6221237;23;20158;-88
2022/01/06 02:12:47;;;;;;;9.90;4.05;;;5.80;86.10;;;;;;6190115;23;20181;-89
2022/01/06 02:15:13;;;;;;;16.17;3.15;;;5.80;85.90;;;;;;6194814;23;20177;-88
2022/01/06 02:17:39;;;;;;;23.10;3.10;;;5.70;85.60;;;;;;6210056;23;20157;-89
2022/01/06 02:20:10;;;;;;;11.10;4.30;;;5.60;85.40;;;;;;6220882;23;20752;-89
2022/01/06 02:22:37;;;;;;;24.58;4.65;;;5.70;85.50;;;;;;6190355;23;20719;-89
2022/01/06 02:25:20;;;;;;;12.68;3.13;;;5.70;85.50;;;;;;6218671;23;20145;-89
2022/01/06 02:27:48;;;;;;;18.27;3.22;;;5.80;85.40;;;;;;6216649;23;20169;-88
2022/01/06 02:30:15;;;;;;;7.90;1.88;;;5.80;85.30;;;;;;6190362;23;20181;-89
2022/01/06 02:32:41;;;;;;;15.90;3.58;;;5.70;85.20;;;;;;6189779;23;20157;-89
2022/01/06 02:35:09;;;;;;;35.92;3.53;;;5.60;85.10;;;;;;6190217;23;20164;-89
2022/01/06 02:37:35;;;;;;;15.35;3.15;;;5.60;85.00;;;;;;6190124;23;20157;-88
2022/01/06 02:40:01;;;;;;;25.88;3.58;;;5.50;84.80;;;;;;6190162;23;20154;-89
2022/01/06 02:42:28;;;;;;;8.77;3.30;;;5.50;84.70;;;;;;6189579;23;20165;-89
2022/01/06 02:44:54;;;;;;;18.10;2.83;;;5.50;84.30;;;;;;6189721;23;20161;-89
2022/01/06 02:50:55;;;;;;;21.40;2.67;;;5.70;83.90;;;;;;6217166;23;20191;-89
2022/01/06 02:53:21;;;;;;;6.50;2.50;;;5.50;83.30;;;;;;6190307;23;20208;-89
2022/01/06 02:55:50;;;;;;;14.10;2.77;;;5.60;83.00;;;;;;6190280;23;20721;-88
2022/01/06 02:58:21;;;;;;;8.52;1.70;;;5.50;82.80;;;;;;6193055;23;20157;-89
2022/01/06 03:00:47;;;;;;;9.85;2.85;;;5.50;82.50;;;;;;6198488;23;20161;-89
2022/01/06 03:03:13;;;;;;;12.38;2.92;;;5.50;82.40;;;;;;6198226;23;20184;-88
2022/01/06 03:05:39;;;;;;;15.03;2.87;;;5.50;82.50;;;;;;6194424;23;20679;-89
2022/01/06 03:08:05;;;;;;;21.97;2.73;;;5.50;82.70;;;;;;6189965;23;20616;-89
2022/01/06 03:10:35;;;;;;;13.07;2.10;;;5.50;82.70;;;;;;6190298;23;20714;-89
2022/01/06 03:13:01;;;;;;;11.07;2.05;;;5.50;82.80;;;;;;6216406;23;20126;-89
2022/01/06 03:15:27;;;;;;;16.60;3.00;;;5.60;82.80;;;;;;6191509;23;20219;-88
2022/01/06 03:17:57;;;;;;;16.37;2.23;;;5.60;82.90;;;;;;6191820;23;20446;-89
2022/01/06 03:20:26;;;;;;;13.88;2.78;;;5.70;82.90;;;;;;6191274;23;20192;-89
2022/01/06 03:22:55;;;;;;;16.95;2.30;;;5.70;82.80;;;;;;6217433;23;20153;-89
2022/01/06 03:25:22;;;;;;;16.63;2.55;;;5.70;82.70;;;;;;6217731;23;20169;-89
2022/01/06 03:27:48;;;;;;;6.60;2.45;;;5.70;82.60;;;;;;6217130;23;20225;-89
2022/01/06 03:30:23;;;;;;;11.30;2.07;;;5.70;82.70;;;;;;6193586;23;20154;-88
2022/01/06 03:32:49;;;;;;;12.93;2.65;;;5.70;82.60;;;;;;6221743;23;20440;-89
2022/01/06 03:35:20;;;;;;;8.13;2.42;;;5.70;82.60;;;;;;6196743;23;20180;-89
2022/01/06 03:37:45;;;;;;;7.68;2.15;;;5.80;82.60;;;;;;6195665;23;20153;-89
2022/01/06 03:40:12;;;;;;;18.13;3.00;;;5.90;82.70;;;;;;6190043;23;20611;-88
2022/01/06 03:42:38;;;;;;;10.00;1.92;;;5.90;82.70;;;;;;6216246;23;20408;-89
2022/01/06 03:45:06;;;;;;;6.03;2.00;;;6.00;82.80;;;;;;6220561;23;20462;-89
2022/01/06 03:47:32;;;;;;;11.18;2.47;;;6.00;82.70;;;;;;6220234;23;20412;-90
2022/01/06 03:49:58;;;;;;;13.23;3.17;;;6.00;82.60;;;;;;6212636;23;20602;-88
2022/01/06 03:52:24;;;;;;;16.80;2.83;;;5.90;82.50;;;;;;6190327;23;20395;-88
2022/01/06 03:54:51;;;;;;;10.00;2.80;;;5.90;82.60;;;;;;6189049;23;20161;-88
2022/01/06 03:57:17;;;;;;;10.05;2.35;;;5.80;82.50;;;;;;6189497;23;20416;-88
2022/01/06 03:59:43;;;;;;;3.95;1.98;;;5.80;82.60;;;;;;6205735;23;20142;-89
2022/01/06 04:02:08;;;;;;;7.83;2.50;;;5.80;82.80;;;;;;6211360;23;20188;-89
2022/01/06 04:04:53;;;;;;;13.00;2.67;;;5.90;83.00;;;;;;6229854;23;20148;-88
2022/01/06 04:07:19;;;;;;;13.73;3.00;;;5.90;82.90;;;;;;6189399;23;20193;-89
2022/01/06 04:09:44;;;;;;;11.53;3.00;;;5.80;83.00;;;;;;6189461;23;20530;-88
2022/01/06 04:12:11;;;;;;;10.33;2.97;;;5.90;83.20;;;;;;6190429;23;20219;-88
2022/01/06 04:14:37;;;;;;;15.90;2.70;;;5.80;83.20;;;;;;6198074;23;20177;-89
2022/01/06 04:17:07;;;;;;;15.00;2.70;;;5.80;83.20;;;;;;6192347;23;20185;-88
2022/01/06 04:19:35;;;;;;;6.72;3.10;;;5.90;83.30;;;;;;6216265;23;20236;-89
2022/01/06 04:22:02;;;;;;;11.70;2.80;;;5.80;83.30;;;;;;6189120;23;20232;-89
2022/01/06 04:24:28;;;;;;;17.55;3.65;;;5.70;83.40;;;;;;6188554;23;20236;-89
2022/01/06 04:26:53;;;;;;;20.93;2.50;;;5.80;83.50;;;;;;6188531;23;20224;-88
2022/01/06 04:29:19;;;;;;;14.97;2.87;;;5.80;83.40;;;;;;6189139;23;20160;-88
2022/01/06 04:31:44;;;;;;;21.77;3.57;;;5.80;83.40;;;;;;6188737;23;20240;-89
2022/01/06 04:34:10;;;;;;;11.90;3.20;;;5.80;83.50;;;;;;6188514;23;20235;-88
2022/01/06 04:36:36;;;;;;;12.80;3.63;;;5.70;83.50;;;;;;6188636;23;20184;-89
2022/01/06 04:39:03;;;;;;;14.20;2.80;;;5.70;83.70;;;;;;6188349;23;20244;-88
2022/01/06 04:41:28;;;;;;;16.13;2.75;;;5.70;83.80;;;;;;6188996;23;20393;-88
2022/01/06 04:43:54;;;;;;;14.13;3.07;;;5.60;83.80;;;;;;6189014;23;20168;-88
2022/01/06 04:46:25;;;;;;;12.83;3.30;;;5.50;83.80;;;;;;6215762;23;20718;-89
2022/01/06 04:48:51;;;;;;;9.30;2.47;;;5.50;83.90;;;;;;6190796;23;20145;-89
2022/01/06 04:51:16;;;;;;;8.93;2.87;;;5.50;84.00;;;;;;6189979;23;20215;-89
2022/01/06 04:53:42;;;;;;;13.13;4.97;;;5.50;84.10;;;;;;6189749;23;20211;-89
2022/01/06 04:56:08;;;;;;;12.03;2.37;;;5.50;84.10;;;;;;6189190;23;20401;-89
2022/01/06 04:58:34;;;;;;;10.50;3.40;;;5.60;84.00;;;;;;6215189;23;20533;-89
2022/01/06 05:01:00;;;;;;;13.90;3.85;;;5.60;84.00;;;;;;6188828;23;20181;-88
2022/01/06 05:03:26;;;;;;;9.13;2.43;;;5.50;84.00;;;;;;6189023;23;20172;-88
2022/01/06 05:05:51;;;;;;;10.97;3.20;;;5.50;84.20;;;;;;6188504;23;20834;-88
2022/01/06 05:08:17;;;;;;;16.67;4.03;;;5.40;84.20;;;;;;6188533;23;20495;-89
2022/01/06 05:10:43;;;;;;;10.67;3.73;;;5.30;84.40;;;;;;6188723;23;20392;-89
2022/01/06 05:13:09;;;;;;;19.67;4.07;;;5.40;84.60;;;;;;6188150;23;20391;-89
2022/01/06 05:15:35;;;;;;;13.40;4.20;;;5.20;84.70;;;;;;6189292;23;20586;-88
2022/01/06 05:18:00;;;;;;;13.30;3.47;;;5.30;84.90;;;;;;6188958;23;20423;-88
2022/01/06 05:20:27;;;;;;;5.80;3.50;;;5.20;84.90;;;;;;6188777;23;20161;-89
2022/01/06 05:22:56;;;;;;;12.60;4.15;;;5.20;85.10;;;;;;6188229;23;20249;-89
2022/01/06 05:25:26;;;;;;;13.73;4.63;;;5.20;85.40;;;;;;6188046;23;20181;-88
2022/01/06 05:27:53;;;;;;;10.75;3.78;;;5.40;85.40;;;;;;6188380;23;20184;-89
2022/01/06 05:30:19;;;;;;;29.10;4.00;;;5.30;85.40;;;;;;6188377;23;20153;-88
2022/01/06 05:32:44;;;;;;;17.80;4.00;;;5.30;85.50;;;;;;6188031;23;20161;-89
2022/01/06 05:35:10;;;;;;;14.00;4.27;;;5.40;85.50;;;;;;6188320;23;20177;-88
2022/01/06 05:37:36;;;;;;;24.05;5.47;;;5.30;85.50;;;;;;6188772;23;20175;-89
2022/01/06 05:40:03;;;;;;;24.10;4.97;;;5.30;85.60;;;;;;6188880;23;20243;-89
2022/01/06 05:42:28;;;;;;;21.70;5.05;;;5.20;85.40;;;;;;6190038;23;20164;-89
2022/01/06 05:44:54;;;;;;;17.40;7.33;;;5.10;85.60;;;;;;6228980;23;20157;-89
2022/01/06 05:47:20;;;;;;;10.40;5.10;;;5.10;85.80;;;;;;6188738;23;20181;-89
2022/01/06 05:49:46;;;;;;;22.10;5.00;;;5.10;85.90;;;;;;6188578;23;20384;-89
2022/01/06 05:52:12;;;;;;;27.20;5.50;;;5.10;86.00;;;;;;6190872;23;20388;-88
2022/01/06 05:54:39;;;;;;;16.75;5.38;;;5.10;86.00;;;;;;6199108;23;20149;-89
2022/01/06 05:57:06;;;;;;;35.17;6.88;;;5.10;86.00;;;;;;6212961;23;20169;-89
2022/01/06 05:59:42;;;;;;;14.60;4.63;;;5.10;86.00;;;;;;6210390;23;20442;-88
2022/01/06 06:02:08;;;;;;;20.80;6.15;;;5.20;86.00;;;;;;6191383;23;20145;-88
2022/01/06 06:04:34;;;;;;;21.77;5.50;;;5.20;85.90;;;;;;6191055;23;20212;-88
2022/01/06 06:07:00;;;;;;;10.10;5.83;;;5.10;85.80;;;;;;6190268;23;20436;-89
2022/01/06 06:09:26;;;;;;;17.63;5.70;;;5.10;85.90;;;;;;6194105;23;20387;-89
2022/01/06 06:11:52;;;;;;;22.50;6.40;;;5.10;85.90;;;;;;6231694;23;20460;-89
2022/01/06 06:14:17;;;;;;;23.93;6.93;;;5.00;86.00;;;;;;6219426;23;20766;-89
2022/01/06 06:16:44;;;;;;;16.13;7.10;;;4.90;86.10;;;;;;6194508;23;20404;-89
2022/01/06 06:19:10;;;;;;;17.08;7.75;;;4.90;86.10;;;;;;6193444;23;20168;-89
2022/01/06 06:21:35;;;;;;;15.15;8.55;;;4.90;86.20;;;;;;6218702;23;20483;-89
2022/01/06 06:24:01;;;;;;;17.50;8.33;;;4.90;86.30;;;;;;6191136;23;20164;-88
2022/01/06 06:26:27;;;;;;;15.20;6.50;;;4.90;86.30;;;;;;6190503;23;20189;-89
2022/01/06 06:28:53;;;;;;;23.57;7.70;;;4.90;86.30;;;;;;6190280;23;20157;-88
2022/01/06 06:31:19;;;;;;;26.77;7.97;;;4.80;86.20;;;;;;6189722;23;20731;-88
2022/01/06 06:33:44;;;;;;;23.25;7.97;;;4.80;86.30;;;;;;6216303;23;20200;-88
2022/01/06 06:36:10;;;;;;;27.13;6.97;;;4.80;86.20;;;;;;6192707;23;20169;-89
2022/01/06 06:38:36;;;;;;;16.73;6.80;;;4.70;86.30;;;;;;6218170;23;20153;-89
2022/01/06 06:41:01;;;;;;;23.27;6.70;;;4.70;86.30;;;;;;6191587;23;20154;-88
2022/01/06 06:43:27;;;;;;;14.43;7.13;;;4.70;86.30;;;;;;6216513;23;20533;-89
2022/01/06 06:45:53;;;;;;;12.03;5.33;;;4.70;86.50;;;;;;6189765;23;20408;-89
2022/01/06 06:48:18;;;;;;;15.87;6.20;;;4.70;86.50;;;;;;6190605;23;20185;-89
2022/01/06 06:50:44;;;;;;;27.20;6.23;;;4.70;86.50;;;;;;6218459;23;20150;-89
2022/01/06 06:53:10;;;;;;;21.53;7.53;;;4.70;86.60;;;;;;6197636;23;20158;-89
2022/01/06 06:55:36;;;;;;;21.30;6.80;;;4.80;86.60;;;;;;6198464;23;20179;-89
2022/01/06 06:58:08;;;;;;;17.37;5.80;;;4.80;86.60;;;;;;6198642;23;20157;-89
2022/01/06 07:00:33;;;;;;;22.17;4.55;;;4.80;86.50;;;;;;6218667;23;20357;-88
2022/01/06 07:02:59;;;;;;;13.10;4.97;;;4.90;86.50;;;;;;6189722;23;20295;-89
2022/01/06 07:05:24;;;;;;;14.10;5.60;;;4.80;86.20;;;;;;6190534;23;20327;-89
2022/01/06 07:07:50;;;;;;;19.13;4.90;;;4.80;86.00;;;;;;6218092;23;20666;-89
2022/01/06 07:10:16;;;;;;;15.50;5.10;;;4.80;85.80;;;;;;6195079;23;20267;-88
2022/01/06 07:12:44;;;;;;;15.47;4.50;;;4.80;85.80;;;;;;6196599;23;20153;-89
2022/01/06 07:15:12;;;;;;;18.13;4.65;;;4.80;85.60;;;;;;6201757;23;20189;-88
2022/01/06 07:17:38;;;;;;;15.63;4.40;;;4.90;85.50;;;;;;6193078;23;20176;-89
2022/01/06 07:20:04;;;;;;;6.10;3.30;;;4.90;85.40;;;;;;6190641;23;20229;-89
2022/01/06 07:22:30;;;;;;;19.80;5.25;;;4.80;85.20;;;;;;6206140;23;20385;-89
2022/01/06 07:24:56;;;;;;;17.77;3.97;;;4.80;85.20;;;;;;6190518;23;20935;-89
2022/01/06 07:27:22;;;;;;;13.43;4.67;;;4.80;85.20;;;;;;6190439;23;20181;-89
2022/01/06 07:30:04;;;;;;;10.98;4.47;;;4.80;85.20;;;;;;6190148;23;20224;-89
2022/01/06 07:32:30;;;;;;;21.30;4.82;;;4.70;85.10;;;;;;6217511;23;20552;-89
2022/01/06 07:34:56;;;;;;;8.73;3.87;;;4.70;85.10;;;;;;6191012;23;20163;-89
2022/01/06 07:37:21;;;;;;;8.80;4.73;;;4.80;85.10;;;;;;6198501;23;20383;-88
2022/01/06 07:39:47;;;;;;;14.47;5.10;;;4.80;85.10;;;;;;6208974;23;20918;-89
2022/01/06 07:42:13;;;;;;;8.87;3.80;;;4.80;85.10;;;;;;6218279;23;20145;-90
2022/01/06 07:44:39;;;;;;;20.47;5.43;;;4.80;85.10;;;;;;6192001;23;20164;-89
2022/01/06 07:47:04;;;;;;;24.13;5.30;;;4.90;85.10;;;;;;6219337;23;20424;-89
2022/01/06 07:49:30;;;;;;;7.60;4.30;;;4.80;85.00;;;;;;6203095;23;20391;-90
2022/01/06 07:51:56;;;;;;;13.40;4.50;;;5.00;85.70;;;;;;6200068;23;20384;-90
2022/01/06 07:54:22;;;;;;;20.00;5.07;;;4.90;84.90;;;;;;6191208;23;20169;-89
2022/01/06 07:56:47;;;;;;;9.98;4.28;;;4.90;84.90;;;;;;6190674;23;20185;-89
2022/01/06 07:59:13;;;;;;;16.03;4.67;;;4.90;84.90;;;;;;6190130;23;20595;-89
2022/01/06 08:01:40;;;;;;;17.77;4.90;;;4.90;84.90;;;;;;6190271;23;20168;-89
2022/01/06 08:04:06;;;;;;;12.57;5.38;;;4.90;84.90;;;;;;6190042;23;20232;-89
2022/01/06 08:06:43;;;;;;;9.10;4.30;;;5.00;84.90;;;;;;6189830;23;20343;-89
2022/01/06 08:09:08;;;;;;;14.98;5.57;;;5.00;85.00;;;;;;6217777;23;20429;-89
2022/01/06 08:11:34;;;;;;;15.03;5.40;;;5.10;85.10;;;;;;6217527;23;20145;-89
2022/01/06 08:14:00;;;;;;;14.53;5.50;;;5.10;85.00;;;;;;6215727;23;20150;-88
2022/01/06 08:16:26;;;;;;;30.40;7.87;;;5.30;85.10;;;;;;6189325;23;20184;-88
2022/01/06 08:18:51;;;;;;;20.17;5.87;;;5.30;85.10;;;;;;6190086;23;20388;-89
2022/01/06 08:21:17;;;;;;;17.63;6.23;;;5.40;84.90;;;;;;6190142;23;20169;-89
2022/01/06 08:23:43;;;;;;;11.17;5.97;;;5.50;84.90;;;;;;6189032;23;20500;-89
2022/01/06 08:26:08;;;;;;;17.13;6.13;;;5.50;84.80;;;;;;6189985;23;20181;-89
2022/01/06 08:28:34;;;;;;;21.63;6.20;;;5.50;84.70;;;;;;6216339;23;20208;-89
2022/01/06 08:31:00;;;;;;;18.30;5.13;;;5.40;84.40;;;;;;6189909;23;20233;-89
2022/01/06 08:33:26;;;;;;;19.03;5.70;;;5.40;84.30;;;;;;6217848;23;20241;-89
2022/01/06 08:35:52;;;;;;;14.60;5.13;;;5.60;84.20;;;;;;6191703;23;20401;-89
2022/01/06 08:38:18;;;;;;;11.32;5.85;;;5.50;84.00;;;;;;6216331;23;20714;-89
2022/01/06 08:40:56;;;;;;;18.93;6.07;;;5.60;83.70;;;;;;6189604;23;20168;-89
2022/01/06 08:43:27;;;;;;;17.27;6.45;;;5.60;83.50;;;;;;6189249;23;20207;-89
2022/01/06 08:45:54;;;;;;;14.00;5.90;;;5.60;83.40;;;;;;6215999;23;20169;-89
2022/01/06 08:48:20;;;;;;;14.18;6.28;;;5.60;83.40;;;;;;6190729;23;20181;-89
2022/01/06 08:50:46;;;;;;;12.48;6.03;;;5.50;83.40;;;;;;6190323;23;20153;-90
2022/01/06 08:53:12;;;;;;;13.03;5.40;;;5.60;83.40;;;;;;6217417;23;20146;-88
2022/01/06 08:55:38;;;;;;;17.23;7.40;;;5.60;83.40;;;;;;6192404;23;20404;-87
2022/01/06 08:58:04;;;;;;;19.77;5.73;;;5.60;83.30;;;;;;6191058;23;20161;-89
2022/01/06 09:00:30;;;;;;;33.50;6.93;;;5.70;83.40;;;;;;6191350;23;20410;-88
2022/01/06 09:02:57;;;;;;;12.50;4.55;;;5.70;83.30;;;;;;6191393;23;20894;-89
2022/01/06 09:05:23;;;;;;;19.77;5.93;;;5.80;83.10;;;;;;6190482;23;20177;-88
2022/01/06 09:07:49;;;;;;;15.15;5.40;;;5.90;82.70;;;;;;6217767;23;20165;-89
2022/01/06 09:10:15;;;;;;;18.08;6.15;;;6.10;82.00;;;;;;6191636;23;20153;-89
2022/01/06 09:12:42;;;;;;;12.37;5.23;;;6.10;81.90;;;;;;6192650;23;20181;-89
2022/01/06 09:15:09;;;;;;;10.32;5.18;;;6.30;81.60;;;;;;6193242;23;20388;-88
2022/01/06 09:17:36;;;;;;;20.30;5.10;;;6.50;81.00;;;;;;6191690;23;20173;-89
2022/01/06 09:20:04;;;;;;;14.45;4.70;;;6.50;80.80;;;;;;6191943;23;20207;-89
2022/01/06 09:22:30;;;;;;;18.90;5.18;;;6.60;80.30;;;;;;6191742;23;20157;-88
2022/01/06 09:24:58;;;;;;;17.17;5.80;;;6.40;79.50;;;;;;6220485;23;20154;-88
2022/01/06 09:27:24;;;;;;;11.60;4.85;;;6.40;79.70;;;;;;6196668;23;20173;-88
2022/01/06 09:29:53;;;;;;;20.43;6.10;;;6.50;79.90;;;;;;6207421;23;20172;-88
2022/01/06 09:32:19;;;;;;;9.27;5.50;;;6.60;80.30;;;;;;6202141;23;20165;-88
2022/01/06 09:34:45;;;;;;;15.20;4.85;;;6.70;80.60;;;;;;6191952;23;20217;-88
2022/01/06 09:37:12;;;;;;;14.30;4.75;;;7.00;80.30;;;;;;6192847;23;20181;-88
2022/01/06 09:39:38;;;;;;;15.95;5.55;;;6.90;80.10;;;;;;6195561;23;20162;-88
2022/01/06 09:42:04;;;;;;;21.25;4.82;;;6.80;80.10;;;;;;6209622;23;20207;-88
2022/01/06 09:44:31;;;;;;;11.90;4.47;;;6.90;80.10;;;;;;6198423;23;20161;-89
2022/01/06 09:46:57;;;;;;;8.52;4.38;;;6.80;79.80;;;;;;6191815;23;20443;-87
2022/01/06 09:49:24;;;;;;;12.63;4.75;;;6.80;79.70;;;;;;6219127;23;20149;-88
2022/01/06 09:51:51;;;;;;;14.80;4.90;;;7.00;79.30;;;;;;6228621;23;20145;-88
2022/01/06 09:54:18;;;;;;;11.35;3.88;;;7.10;79.40;;;;;;6218977;23;20493;-88
2022/01/06 09:56:43;;;;;;;13.70;4.70;;;7.20;79.40;;;;;;6190399;23;20177;-88
2022/01/06 09:59:09;;;;;;;16.10;4.40;;;7.20;78.80;;;;;;6216699;23;20157;-88
2022/01/06 10:01:41;;;;;;;11.27;4.85;;;7.30;78.60;;;;;;6190947;23;20172;-88
2022/01/06 10:04:24;;;;;;;23.90;4.80;;;7.50;77.90;;;;;;6196751;23;20157;-88
2022/01/06 10:07:03;;;;;;;10.15;4.18;;;7.50;77.60;;;;;;6202359;23;20541;-88
2022/01/06 10:09:30;;;;;;;8.85;4.38;;;7.60;77.10;;;;;;6190044;23;20542;-88
2022/01/06 10:11:57;;;;;;;11.13;4.40;;;7.70;76.60;;;;;;6216343;23;20146;-87
2022/01/06 10:14:32;;;;;;;16.05;5.22;;;7.60;76.20;;;;;;6189691;23;20160;-88
2022/01/06 10:16:58;;;;;;;9.98;4.10;;;7.50;76.40;;;;;;6189738;23;20180;-88
2022/01/06 10:19:25;;;;;;;13.55;4.40;;;7.40;76.30;;;;;;6191050;23;20181;-89
2022/01/06 10:21:57;;;;;;;18.70;5.45;;;7.20;76.80;;;;;;6190535;23;20211;-89
2022/01/06 10:24:24;;;;;;;16.30;4.57;;;7.20;77.00;;;;;;6189167;23;20494;-88
2022/01/06 10:27:06;;;;;;;10.75;5.22;;;7.10;77.30;;;;;;6189762;23;20754;-88
2022/01/06 10:29:51;;;;;;;9.43;4.32;;;7.30;77.70;;;;;;6191047;23;20152;-89
2022/01/06 10:32:33;;;;;;;18.65;5.68;;;7.50;77.80;;;;;;6189898;23;20233;-89
2022/01/06 10:35:04;;;;;;;25.83;4.82;;;7.60;77.80;;;;;;6189664;23;20153;-89
2022/01/06 10:37:44;;;;;;;12.07;5.72;;;7.70;77.90;;;;;;6218646;23;20161;-89
2022/01/06 10:40:17;;;;;;;11.35;5.70;;;7.80;77.70;;;;;;6200583;23;20160;-89
2022/01/06 10:42:48;;;;;;;22.10;5.80;;;7.80;77.40;;;;;;6212919;23;20137;-90
2022/01/06 10:45:19;;;;;;;15.93;6.22;;;7.90;77.20;;;;;;6211360;23;20176;-89
2022/01/06 10:47:46;;;;;;;11.10;5.03;;;7.90;76.90;;;;;;6213582;23;20196;-89
2022/01/06 10:50:24;;;;;;;14.35;5.18;;;7.70;76.60;;;;;;6230351;23;20745;-89
2022/01/06 10:52:58;;;;;;;19.33;6.55;;;7.70;76.50;;;;;;6202364;23;20161;-89
2022/01/06 10:55:27;;;;;;;15.48;6.03;;;7.70;76.20;;;;;;6206500;23;20218;-89
2022/01/06 10:57:58;;;;;;;10.82;4.65;;;7.70;76.10;;;;;;6197679;23;20185;-88
2022/01/06 11:00:29;;;;;;;13.52;4.68;;;7.60;76.20;;;;;;6193944;23;20157;-89
2022/01/06 11:03:09;;;;;;;11.20;5.38;;;7.50;76.40;;;;;;6217788;23;20137;-89
2022/01/06 11:05:37;;;;;;;16.85;5.50;;;7.30;76.40;;;;;;6190284;23;20196;-89
2022/01/06 11:08:05;;;;;;;21.75;5.13;;;7.30;76.70;;;;;;6191281;23;20173;-89
2022/01/06 11:10:45;;;;;;;10.85;4.45;;;7.30;76.50;;;;;;6191641;23;20485;-89
2022/01/06 11:13:11;;;;;;;27.40;6.05;;;7.20;76.70;;;;;;6191179;23;20491;-89
2022/01/06 11:15:37;;;;;;;15.23;5.13;;;7.30;76.80;;;;;;6191732;23;20200;-89
2022/01/06 11:18:05;;;;;;;25.83;5.47;;;7.20;77.50;;;;;;6192364;23;20165;-89
2022/01/06 11:20:31;;;;;;;14.95;5.35;;;7.20;77.00;;;;;;6193319;23;20161;-89
2022/01/06 11:22:59;;;;;;;21.88;6.43;;;7.20;77.00;;;;;;6213569;23;20161;-90
2022/01/06 11:25:38;;;;;;;14.70;5.13;;;7.20;77.00;;;;;;6201266;23;20237;-89
2022/01/06 11:28:07;;;;;;;21.23;5.38;;;7.20;77.20;;;;;;6193246;23;20181;-89
2022/01/06 11:30:52;;;;;;;12.32;5.13;;;7.20;77.40;;;;;;6194181;23;20585;-89
2022/01/06 11:33:18;;;;;;;15.15;5.72;;;7.10;77.60;;;;;;6200443;23;20161;-90
2022/01/06 11:35:52;;;;;;;10.95;5.43;;;7.30;77.70;;;;;;6206014;23;20204;-89
2022/01/06 11:38:20;;;;;;;15.30;5.53;;;7.30;77.80;;;;;;6202378;23;20168;-89
2022/01/06 11:40:47;;;;;;;22.27;8.02;;;7.30;77.90;;;;;;6191913;23;20192;-89
2022/01/06 11:43:13;;;;;;;20.20;5.90;;;7.30;77.90;;;;;;6190771;23;20223;-89
2022/01/06 11:45:39;;;;;;;19.05;5.30;;;7.50;77.80;;;;;;6196412;23;20189;-89
2022/01/06 11:48:09;;;;;;;19.70;5.73;;;7.50;77.70;;;;;;6199148;23;20181;-89
2022/01/06 11:50:41;;;;;;;10.35;5.13;;;7.70;77.40;;;;;;6194119;23;20380;-89
2022/01/06 11:53:08;;;;;;;23.35;5.13;;;7.70;77.00;;;;;;6190971;23;20178;-88
2022/01/06 11:55:38;;;;;;;25.05;5.35;;;7.80;76.80;;;;;;6193659;23;20490;-90
2022/01/06 11:58:19;;;;;;;11.32;5.22;;;7.80;76.50;;;;;;6192577;23;20157;-90
2022/01/06 12:01:07;;;;;;;16.50;5.30;;;8.00;76.10;;;;;;6212332;23;20153;-90
2022/01/06 12:03:46;;;;;;;27.67;5.35;;;7.70;75.10;;;;;;6190898;23;20527;-91
2022/01/06 12:06:22;;;;;;;12.32;4.50;;;7.80;75.00;;;;;;6190297;23;20200;-92
2022/01/06 12:08:54;;;;;;;27.13;6.05;;;7.90;74.80;;;;;;6191508;23;20239;-91
2022/01/06 12:11:26;;;;;;;9.93;4.28;;;8.00;74.30;;;;;;6192145;23;20209;-91
2022/01/06 12:13:54;;;;;;;15.52;5.45;;;8.10;74.10;;;;;;6199763;23;20153;-91
2022/01/06 12:16:32;;;;;;;14.25;4.80;;;8.00;73.60;;;;;;6191622;23;20183;-91
2022/01/06 12:19:00;;;;;;;19.75;5.45;;;7.90;73.50;;;;;;6191431;23;20157;-91
2022/01/06 12:21:26;;;;;;;20.27;6.03;;;7.80;73.50;;;;;;6190305;23;20157;-89
2022/01/06 12:24:06;;;;;;;8.75;4.22;;;7.70;73.90;;;;;;6190023;23;20608;-91
2022/01/06 12:26:34;;;;;;;18.85;4.60;;;7.80;74.20;;;;;;6190820;23;20231;-92
2022/01/06 12:29:01;;;;;;;19.08;4.90;;;7.90;74.20;;;;;;6190910;23;20157;-91
2022/01/06 12:31:30;;;;;;;18.05;4.82;;;8.00;73.80;;;;;;6191577;23;20181;-92
2022/01/06 12:34:02;;;;;;;12.27;5.68;;;8.00;73.70;;;;;;6192426;23;20149;-91
2022/01/06 12:36:46;;;;;;;11.10;3.65;;;8.00;74.00;;;;;;6215023;23;20173;-91
2022/01/06 12:39:17;;;;;;;12.93;6.00;;;8.00;74.20;;;;;;6190249;23;20504;-92
2022/01/06 12:41:44;;;;;;;16.42;5.47;;;8.10;73.90;;;;;;6191007;23;20223;-90
2022/01/06 12:44:16;;;;;;;17.95;5.60;;;7.90;73.70;;;;;;6193301;23;20157;-91
2022/01/06 12:46:42;;;;;;;17.42;5.55;;;7.90;73.80;;;;;;6219975;23;20280;-91
2022/01/06 12:49:09;;;;;;;22.23;6.38;;;7.90;73.90;;;;;;6193359;23;20157;-91
2022/01/06 12:51:40;;;;;;;25.70;5.70;;;8.00;74.00;;;;;;6192594;23;20163;-91
2022/01/06 12:54:13;;;;;;;11.93;5.00;;;8.20;73.50;;;;;;6192572;23;20232;-90
2022/01/06 12:56:51;;;;;;;13.07;5.32;;;8.20;73.10;;;;;;6217722;23;20227;-90
2022/01/06 12:59:33;;;;;;;12.93;4.50;;;8.20;72.90;;;;;;6219634;23;20172;-91
2022/01/06 13:02:02;;;;;;;15.70;4.55;;;8.10;73.00;;;;;;6191279;23;20556;-90